sensor_id;sensor_type;location;lat;lon;timestamp;P1;durP1;ratioP1;P2;durP2;ratioP2
787;SDS011;16074;42.708;23.312;2022-12-18T00:00:04;12.43;;;9.57;;
787;SDS011;16074;42.708;23.312;2022-12-18T00:02:39;13.68;;;9.82;;
787;SDS011;16074;42.708;23.312;2022-12-18T00:05:08;12.25;;;10.45;;
787;SDS011;16074;42.708;23.312;2022-12-18T00:07:36;16.27;;;9.90;;
787;SDS011;16074;42.708;23.312;2022-12-18T00:10:05;11.25;;;9.88;;
787;SDS011;16074;42.708;23.312;2022-12-18T00:12:35;11.88;;;10.63;;
787;SDS011;16074;42.708;23.312;2022-12-18T00:15:04;12.35;;;11.15;;
787;SDS011;16074;42.708;23.312;2022-12-18T00:17:33;12.13;;;10.82;;
787;SDS011;16074;42.708;23.312;2022-12-18T00:20:01;9.70;;;8.68;;
787;SDS011;16074;42.708;23.312;2022-12-18T00:22:30;12.60;;;11.30;;
787;SDS011;16074;42.708;23.312;2022-12-18T00:24:58;13.98;;;11.13;;
787;SDS011;16074;42.708;23.312;2022-12-18T00:27:26;13.23;;;10.88;;
787;SDS011;16074;42.708;23.312;2022-12-18T00:29:56;14.85;;;11.90;;
787;SDS011;16074;42.708;23.312;2022-12-18T00:32:24;12.25;;;10.90;;
787;SDS011;16074;42.708;23.312;2022-12-18T00:34:53;12.70;;;10.02;;
787;SDS011;16074;42.708;23.312;2022-12-18T00:37:21;11.80;;;10.10;;
787;SDS011;16074;42.708;23.312;2022-12-18T00:39:50;11.00;;;9.40;;
787;SDS011;16074;42.708;23.312;2022-12-18T00:42:19;12.63;;;10.20;;
787;SDS011;16074;42.708;23.312;2022-12-18T00:45:06;12.85;;;10.43;;
787;SDS011;16074;42.708;23.312;2022-12-18T00:47:39;12.63;;;9.00;;
787;SDS011;16074;42.708;23.312;2022-12-18T00:50:08;11.20;;;10.10;;
787;SDS011;16074;42.708;23.312;2022-12-18T00:52:36;13.60;;;9.80;;
787;SDS011;16074;42.708;23.312;2022-12-18T00:55:05;10.50;;;9.40;;
787;SDS011;16074;42.708;23.312;2022-12-18T00:57:34;11.50;;;9.75;;
787;SDS011;16074;42.708;23.312;2022-12-18T01:00:03;11.30;;;9.88;;
787;SDS011;16074;42.708;23.312;2022-12-18T01:02:35;13.45;;;10.65;;
787;SDS011;16074;42.708;23.312;2022-12-18T01:05:05;14.73;;;12.00;;
787;SDS011;16074;42.708;23.312;2022-12-18T01:07:34;11.80;;;10.45;;
787;SDS011;16074;42.708;23.312;2022-12-18T01:10:03;12.55;;;9.63;;
787;SDS011;16074;42.708;23.312;2022-12-18T01:12:34;11.32;;;9.45;;
787;SDS011;16074;42.708;23.312;2022-12-18T01:15:03;14.73;;;10.40;;
787;SDS011;16074;42.708;23.312;2022-12-18T01:17:32;17.60;;;10.00;;
787;SDS011;16074;42.708;23.312;2022-12-18T01:20:02;13.55;;;10.60;;
787;SDS011;16074;42.708;23.312;2022-12-18T01:22:31;13.68;;;11.52;;
787;SDS011;16074;42.708;23.312;2022-12-18T01:25:00;12.73;;;11.30;;
787;SDS011;16074;42.708;23.312;2022-12-18T01:27:30;13.10;;;10.77;;
787;SDS011;16074;42.708;23.312;2022-12-18T01:29:59;15.57;;;10.55;;
787;SDS011;16074;42.708;23.312;2022-12-18T01:32:28;13.00;;;11.05;;
787;SDS011;16074;42.708;23.312;2022-12-18T01:34:58;12.43;;;10.80;;
787;SDS011;16074;42.708;23.312;2022-12-18T01:37:27;13.20;;;11.52;;
787;SDS011;16074;42.708;23.312;2022-12-18T01:39:56;12.52;;;10.88;;
787;SDS011;16074;42.708;23.312;2022-12-18T01:42:24;12.60;;;10.75;;
787;SDS011;16074;42.708;23.312;2022-12-18T01:44:54;15.00;;;10.77;;
787;SDS011;16074;42.708;23.312;2022-12-18T01:47:32;12.93;;;11.48;;
787;SDS011;16074;42.708;23.312;2022-12-18T01:50:05;14.30;;;10.07;;
787;SDS011;16074;42.708;23.312;2022-12-18T01:52:37;15.85;;;11.52;;
787;SDS011;16074;42.708;23.312;2022-12-18T01:55:07;13.70;;;10.93;;
787;SDS011;16074;42.708;23.312;2022-12-18T01:57:36;17.00;;;12.93;;
787;SDS011;16074;42.708;23.312;2022-12-18T02:00:06;12.23;;;9.57;;
787;SDS011;16074;42.708;23.312;2022-12-18T02:02:38;12.07;;;10.05;;
787;SDS011;16074;42.708;23.312;2022-12-18T02:05:09;12.85;;;10.55;;
787;SDS011;16074;42.708;23.312;2022-12-18T02:07:42;15.55;;;11.10;;
787;SDS011;16074;42.708;23.312;2022-12-18T02:10:20;12.32;;;8.32;;
787;SDS011;16074;42.708;23.312;2022-12-18T02:12:56;13.23;;;9.18;;
787;SDS011;16074;42.708;23.312;2022-12-18T02:15:36;13.57;;;8.70;;
787;SDS011;16074;42.708;23.312;2022-12-18T02:18:10;12.98;;;9.52;;
787;SDS011;16074;42.708;23.312;2022-12-18T02:20:43;9.13;;;8.18;;
787;SDS011;16074;42.708;23.312;2022-12-18T02:23:21;11.98;;;10.68;;
787;SDS011;16074;42.708;23.312;2022-12-18T02:26:04;12.32;;;9.25;;
787;SDS011;16074;42.708;23.312;2022-12-18T02:28:42;12.65;;;11.10;;
787;SDS011;16074;42.708;23.312;2022-12-18T02:31:14;13.02;;;10.85;;
787;SDS011;16074;42.708;23.312;2022-12-18T02:33:45;9.52;;;8.50;;
787;SDS011;16074;42.708;23.312;2022-12-18T02:36:17;14.52;;;9.15;;
787;SDS011;16074;42.708;23.312;2022-12-18T02:38:49;13.68;;;10.07;;
787;SDS011;16074;42.708;23.312;2022-12-18T02:41:21;12.43;;;9.93;;
787;SDS011;16074;42.708;23.312;2022-12-18T02:43:53;14.77;;;10.27;;
787;SDS011;16074;42.708;23.312;2022-12-18T02:46:27;12.70;;;10.15;;
787;SDS011;16074;42.708;23.312;2022-12-18T02:49:04;12.00;;;9.20;;
787;SDS011;16074;42.708;23.312;2022-12-18T02:51:44;11.25;;;8.45;;
787;SDS011;16074;42.708;23.312;2022-12-18T02:54:21;10.18;;;9.05;;
787;SDS011;16074;42.708;23.312;2022-12-18T02:57:02;13.38;;;10.10;;
787;SDS011;16074;42.708;23.312;2022-12-18T02:59:39;14.60;;;10.48;;
787;SDS011;16074;42.708;23.312;2022-12-18T03:02:16;12.95;;;9.50;;
787;SDS011;16074;42.708;23.312;2022-12-18T03:04:51;11.68;;;10.48;;
787;SDS011;16074;42.708;23.312;2022-12-18T03:07:32;12.48;;;10.43;;
787;SDS011;16074;42.708;23.312;2022-12-18T03:10:08;13.88;;;11.10;;
787;SDS011;16074;42.708;23.312;2022-12-18T03:12:44;11.55;;;9.73;;
787;SDS011;16074;42.708;23.312;2022-12-18T03:15:19;10.13;;;9.13;;
787;SDS011;16074;42.708;23.312;2022-12-18T03:17:59;17.00;;;11.20;;
787;SDS011;16074;42.708;23.312;2022-12-18T03:20:31;13.95;;;10.32;;
787;SDS011;16074;42.708;23.312;2022-12-18T03:23:03;9.57;;;8.57;;
787;SDS011;16074;42.708;23.312;2022-12-18T03:25:35;12.55;;;9.70;;
787;SDS011;16074;42.708;23.312;2022-12-18T03:28:09;11.55;;;9.50;;
787;SDS011;16074;42.708;23.312;2022-12-18T03:30:43;10.50;;;8.70;;
787;SDS011;16074;42.708;23.312;2022-12-18T03:33:15;11.52;;;8.90;;
787;SDS011;16074;42.708;23.312;2022-12-18T03:35:49;11.77;;;8.77;;
787;SDS011;16074;42.708;23.312;2022-12-18T03:38:18;12.90;;;9.50;;
787;SDS011;16074;42.708;23.312;2022-12-18T03:40:53;12.75;;;9.68;;
787;SDS011;16074;42.708;23.312;2022-12-18T03:43:34;12.32;;;9.45;;
787;SDS011;16074;42.708;23.312;2022-12-18T03:46:11;11.75;;;9.70;;
787;SDS011;16074;42.708;23.312;2022-12-18T03:48:46;11.60;;;8.52;;
787;SDS011;16074;42.708;23.312;2022-12-18T03:51:23;13.32;;;9.63;;
787;SDS011;16074;42.708;23.312;2022-12-18T03:53:55;12.02;;;9.20;;
787;SDS011;16074;42.708;23.312;2022-12-18T03:56:33;12.07;;;9.10;;
787;SDS011;16074;42.708;23.312;2022-12-18T03:59:08;12.88;;;10.32;;
787;SDS011;16074;42.708;23.312;2022-12-18T04:01:40;12.07;;;9.20;;
787;SDS011;16074;42.708;23.312;2022-12-18T04:04:14;16.02;;;9.95;;
787;SDS011;16074;42.708;23.312;2022-12-18T04:06:44;12.50;;;10.18;;
787;SDS011;16074;42.708;23.312;2022-12-18T04:09:17;14.52;;;10.68;;
787;SDS011;16074;42.708;23.312;2022-12-18T04:11:47;11.32;;;8.95;;
787;SDS011;16074;42.708;23.312;2022-12-18T04:14:17;11.90;;;9.15;;
787;SDS011;16074;42.708;23.312;2022-12-18T04:16:49;12.45;;;9.30;;
787;SDS011;16074;42.708;23.312;2022-12-18T04:19:22;15.43;;;11.15;;
787;SDS011;16074;42.708;23.312;2022-12-18T04:21:52;14.77;;;10.93;;
787;SDS011;16074;42.708;23.312;2022-12-18T04:24:21;15.40;;;11.95;;
787;SDS011;16074;42.708;23.312;2022-12-18T04:27:02;14.63;;;10.85;;
787;SDS011;16074;42.708;23.312;2022-12-18T04:29:39;19.17;;;12.07;;
787;SDS011;16074;42.708;23.312;2022-12-18T04:32:07;12.95;;;10.23;;
787;SDS011;16074;42.708;23.312;2022-12-18T04:34:37;20.88;;;12.73;;
787;SDS011;16074;42.708;23.312;2022-12-18T04:37:05;16.77;;;11.93;;
787;SDS011;16074;42.708;23.312;2022-12-18T04:39:34;12.93;;;10.98;;
787;SDS011;16074;42.708;23.312;2022-12-18T04:42:09;19.15;;;14.48;;
787;SDS011;16074;42.708;23.312;2022-12-18T04:44:38;21.02;;;12.25;;
787;SDS011;16074;42.708;23.312;2022-12-18T04:47:06;16.63;;;11.30;;
787;SDS011;16074;42.708;23.312;2022-12-18T04:49:35;13.85;;;10.82;;
787;SDS011;16074;42.708;23.312;2022-12-18T04:52:03;14.90;;;13.10;;
787;SDS011;16074;42.708;23.312;2022-12-18T04:54:36;14.05;;;11.02;;
787;SDS011;16074;42.708;23.312;2022-12-18T04:57:04;14.95;;;12.00;;
787;SDS011;16074;42.708;23.312;2022-12-18T04:59:33;18.50;;;13.75;;
787;SDS011;16074;42.708;23.312;2022-12-18T05:02:02;15.40;;;12.30;;
787;SDS011;16074;42.708;23.312;2022-12-18T05:04:31;19.73;;;11.50;;
787;SDS011;16074;42.708;23.312;2022-12-18T05:06:59;16.98;;;12.13;;
787;SDS011;16074;42.708;23.312;2022-12-18T05:09:27;20.25;;;14.73;;
787;SDS011;16074;42.708;23.312;2022-12-18T05:11:55;19.63;;;12.60;;
787;SDS011;16074;42.708;23.312;2022-12-18T05:14:24;27.05;;;15.93;;
787;SDS011;16074;42.708;23.312;2022-12-18T05:16:54;16.80;;;12.38;;
787;SDS011;16074;42.708;23.312;2022-12-18T05:19:28;19.00;;;14.10;;
787;SDS011;16074;42.708;23.312;2022-12-18T05:21:56;18.55;;;14.50;;
787;SDS011;16074;42.708;23.312;2022-12-18T05:24:24;18.45;;;13.30;;
787;SDS011;16074;42.708;23.312;2022-12-18T05:26:52;17.60;;;13.18;;
787;SDS011;16074;42.708;23.312;2022-12-18T05:29:20;18.58;;;13.88;;
787;SDS011;16074;42.708;23.312;2022-12-18T05:31:49;14.43;;;12.52;;
787;SDS011;16074;42.708;23.312;2022-12-18T05:34:17;17.15;;;11.57;;
787;SDS011;16074;42.708;23.312;2022-12-18T05:36:47;18.88;;;13.25;;
787;SDS011;16074;42.708;23.312;2022-12-18T05:39:15;22.15;;;13.25;;
787;SDS011;16074;42.708;23.312;2022-12-18T05:41:44;14.18;;;10.80;;
787;SDS011;16074;42.708;23.312;2022-12-18T05:44:12;22.92;;;15.95;;
787;SDS011;16074;42.708;23.312;2022-12-18T05:46:40;19.13;;;14.57;;
787;SDS011;16074;42.708;23.312;2022-12-18T05:49:08;15.88;;;12.10;;
787;SDS011;16074;42.708;23.312;2022-12-18T05:51:37;21.00;;;12.75;;
787;SDS011;16074;42.708;23.312;2022-12-18T05:54:08;16.58;;;12.48;;
787;SDS011;16074;42.708;23.312;2022-12-18T05:56:36;14.85;;;11.82;;
787;SDS011;16074;42.708;23.312;2022-12-18T05:59:11;18.60;;;13.00;;
787;SDS011;16074;42.708;23.312;2022-12-18T06:01:39;20.85;;;13.48;;
787;SDS011;16074;42.708;23.312;2022-12-18T06:04:07;18.88;;;14.98;;
787;SDS011;16074;42.708;23.312;2022-12-18T06:06:35;18.40;;;12.02;;
787;SDS011;16074;42.708;23.312;2022-12-18T06:09:04;19.17;;;12.88;;
787;SDS011;16074;42.708;23.312;2022-12-18T06:11:36;19.55;;;14.25;;
787;SDS011;16074;42.708;23.312;2022-12-18T06:14:05;19.52;;;13.00;;
787;SDS011;16074;42.708;23.312;2022-12-18T06:16:34;18.10;;;13.05;;
787;SDS011;16074;42.708;23.312;2022-12-18T06:19:03;15.93;;;12.65;;
787;SDS011;16074;42.708;23.312;2022-12-18T06:21:32;18.42;;;11.77;;
787;SDS011;16074;42.708;23.312;2022-12-18T06:24:01;18.42;;;12.65;;
787;SDS011;16074;42.708;23.312;2022-12-18T06:26:30;21.65;;;14.98;;
787;SDS011;16074;42.708;23.312;2022-12-18T06:29:00;16.63;;;12.57;;
787;SDS011;16074;42.708;23.312;2022-12-18T06:31:28;16.27;;;11.63;;
787;SDS011;16074;42.708;23.312;2022-12-18T06:33:56;19.35;;;12.73;;
787;SDS011;16074;42.708;23.312;2022-12-18T06:36:25;19.00;;;13.02;;
787;SDS011;16074;42.708;23.312;2022-12-18T06:38:53;19.05;;;13.25;;
787;SDS011;16074;42.708;23.312;2022-12-18T06:41:21;18.33;;;12.70;;
787;SDS011;16074;42.708;23.312;2022-12-18T06:43:50;17.17;;;12.73;;
787;SDS011;16074;42.708;23.312;2022-12-18T06:46:25;18.00;;;12.65;;
787;SDS011;16074;42.708;23.312;2022-12-18T06:48:53;17.95;;;13.82;;
787;SDS011;16074;42.708;23.312;2022-12-18T06:51:22;17.00;;;12.20;;
787;SDS011;16074;42.708;23.312;2022-12-18T06:53:51;14.75;;;12.05;;
787;SDS011;16074;42.708;23.312;2022-12-18T06:56:19;17.10;;;12.10;;
787;SDS011;16074;42.708;23.312;2022-12-18T06:58:47;19.08;;;13.30;;
787;SDS011;16074;42.708;23.312;2022-12-18T07:01:16;17.48;;;12.18;;
787;SDS011;16074;42.708;23.312;2022-12-18T07:03:46;13.32;;;9.73;;
787;SDS011;16074;42.708;23.312;2022-12-18T07:06:14;18.42;;;12.43;;
787;SDS011;16074;42.708;23.312;2022-12-18T07:08:44;21.25;;;10.68;;
787;SDS011;16074;42.708;23.312;2022-12-18T07:11:12;18.55;;;13.30;;
787;SDS011;16074;42.708;23.312;2022-12-18T07:13:41;19.98;;;12.85;;
787;SDS011;16074;42.708;23.312;2022-12-18T07:16:10;15.43;;;12.10;;
787;SDS011;16074;42.708;23.312;2022-12-18T07:18:49;18.30;;;13.55;;
787;SDS011;16074;42.708;23.312;2022-12-18T07:21:18;18.73;;;13.95;;
787;SDS011;16074;42.708;23.312;2022-12-18T07:23:47;20.45;;;14.57;;
787;SDS011;16074;42.708;23.312;2022-12-18T07:26:16;18.63;;;13.80;;
787;SDS011;16074;42.708;23.312;2022-12-18T07:28:46;20.65;;;15.10;;
787;SDS011;16074;42.708;23.312;2022-12-18T07:31:15;21.45;;;14.23;;
787;SDS011;16074;42.708;23.312;2022-12-18T07:33:48;23.60;;;15.57;;
787;SDS011;16074;42.708;23.312;2022-12-18T07:36:17;22.40;;;14.55;;
787;SDS011;16074;42.708;23.312;2022-12-18T07:38:46;21.92;;;13.85;;
787;SDS011;16074;42.708;23.312;2022-12-18T07:41:15;20.48;;;14.52;;
787;SDS011;16074;42.708;23.312;2022-12-18T07:43:46;21.05;;;14.43;;
787;SDS011;16074;42.708;23.312;2022-12-18T07:46:14;24.33;;;16.85;;
787;SDS011;16074;42.708;23.312;2022-12-18T07:48:44;27.27;;;15.90;;
787;SDS011;16074;42.708;23.312;2022-12-18T07:51:18;27.13;;;15.57;;
787;SDS011;16074;42.708;23.312;2022-12-18T07:53:46;19.50;;;13.88;;
787;SDS011;16074;42.708;23.312;2022-12-18T07:56:18;23.75;;;15.38;;
787;SDS011;16074;42.708;23.312;2022-12-18T07:58:54;22.52;;;14.93;;
787;SDS011;16074;42.708;23.312;2022-12-18T08:01:22;22.65;;;15.35;;
787;SDS011;16074;42.708;23.312;2022-12-18T08:03:51;20.55;;;14.63;;
787;SDS011;16074;42.708;23.312;2022-12-18T08:06:20;23.55;;;16.33;;
787;SDS011;16074;42.708;23.312;2022-12-18T08:08:50;26.70;;;15.77;;
787;SDS011;16074;42.708;23.312;2022-12-18T08:11:20;23.27;;;15.20;;
787;SDS011;16074;42.708;23.312;2022-12-18T08:13:49;19.80;;;13.52;;
787;SDS011;16074;42.708;23.312;2022-12-18T08:16:17;22.92;;;14.98;;
787;SDS011;16074;42.708;23.312;2022-12-18T08:18:46;24.13;;;16.23;;
787;SDS011;16074;42.708;23.312;2022-12-18T08:21:17;22.92;;;16.30;;
787;SDS011;16074;42.708;23.312;2022-12-18T08:23:49;22.83;;;14.50;;
787;SDS011;16074;42.708;23.312;2022-12-18T08:26:18;18.92;;;13.88;;
787;SDS011;16074;42.708;23.312;2022-12-18T08:28:47;21.33;;;15.02;;
787;SDS011;16074;42.708;23.312;2022-12-18T08:31:16;20.85;;;14.48;;
787;SDS011;16074;42.708;23.312;2022-12-18T08:33:45;20.08;;;14.52;;
787;SDS011;16074;42.708;23.312;2022-12-18T08:36:16;21.30;;;15.10;;
787;SDS011;16074;42.708;23.312;2022-12-18T08:38:44;20.02;;;15.13;;
787;SDS011;16074;42.708;23.312;2022-12-18T08:41:14;28.25;;;16.10;;
787;SDS011;16074;42.708;23.312;2022-12-18T08:43:43;22.25;;;15.05;;
787;SDS011;16074;42.708;23.312;2022-12-18T08:46:32;19.35;;;14.23;;
787;SDS011;16074;42.708;23.312;2022-12-18T08:49:02;21.58;;;13.20;;
787;SDS011;16074;42.708;23.312;2022-12-18T08:51:31;20.77;;;15.63;;
787;SDS011;16074;42.708;23.312;2022-12-18T08:54:00;21.25;;;14.77;;
787;SDS011;16074;42.708;23.312;2022-12-18T08:56:32;21.95;;;14.30;;
787;SDS011;16074;42.708;23.312;2022-12-18T08:59:00;15.90;;;11.63;;
787;SDS011;16074;42.708;23.312;2022-12-18T09:01:29;21.13;;;14.48;;
787;SDS011;16074;42.708;23.312;2022-12-18T09:03:59;23.42;;;14.00;;
787;SDS011;16074;42.708;23.312;2022-12-18T09:06:27;23.50;;;14.25;;
787;SDS011;16074;42.708;23.312;2022-12-18T09:08:56;26.58;;;13.38;;
787;SDS011;16074;42.708;23.312;2022-12-18T09:11:26;20.75;;;13.93;;
787;SDS011;16074;42.708;23.312;2022-12-18T09:13:57;17.38;;;13.07;;
787;SDS011;16074;42.708;23.312;2022-12-18T09:16:28;19.23;;;13.82;;
787;SDS011;16074;42.708;23.312;2022-12-18T09:18:58;18.65;;;13.95;;
787;SDS011;16074;42.708;23.312;2022-12-18T09:21:27;17.38;;;12.85;;
787;SDS011;16074;42.708;23.312;2022-12-18T09:23:57;19.10;;;14.13;;
787;SDS011;16074;42.708;23.312;2022-12-18T09:26:25;19.27;;;12.15;;
787;SDS011;16074;42.708;23.312;2022-12-18T09:28:54;17.38;;;12.27;;
787;SDS011;16074;42.708;23.312;2022-12-18T09:31:24;20.42;;;13.77;;
787;SDS011;16074;42.708;23.312;2022-12-18T09:33:54;16.77;;;12.98;;
787;SDS011;16074;42.708;23.312;2022-12-18T09:36:22;17.33;;;11.77;;
787;SDS011;16074;42.708;23.312;2022-12-18T09:38:50;17.70;;;12.02;;
787;SDS011;16074;42.708;23.312;2022-12-18T09:41:25;15.45;;;11.20;;
787;SDS011;16074;42.708;23.312;2022-12-18T09:44:10;15.55;;;12.25;;
787;SDS011;16074;42.708;23.312;2022-12-18T09:46:49;16.33;;;11.77;;
787;SDS011;16074;42.708;23.312;2022-12-18T09:49:23;20.10;;;14.32;;
787;SDS011;16074;42.708;23.312;2022-12-18T09:51:56;18.55;;;12.75;;
787;SDS011;16074;42.708;23.312;2022-12-18T09:54:30;16.95;;;12.10;;
787;SDS011;16074;42.708;23.312;2022-12-18T09:57:03;16.25;;;11.60;;
787;SDS011;16074;42.708;23.312;2022-12-18T09:59:33;18.25;;;10.90;;
787;SDS011;16074;42.708;23.312;2022-12-18T10:02:15;14.55;;;10.85;;
787;SDS011;16074;42.708;23.312;2022-12-18T10:04:47;13.02;;;9.98;;
787;SDS011;16074;42.708;23.312;2022-12-18T10:07:27;16.10;;;11.23;;
787;SDS011;16074;42.708;23.312;2022-12-18T10:10:04;15.32;;;10.55;;
787;SDS011;16074;42.708;23.312;2022-12-18T10:12:40;17.50;;;11.95;;
787;SDS011;16074;42.708;23.312;2022-12-18T10:15:17;20.00;;;13.10;;
787;SDS011;16074;42.708;23.312;2022-12-18T10:17:54;15.27;;;11.40;;
787;SDS011;16074;42.708;23.312;2022-12-18T10:20:29;16.52;;;13.43;;
787;SDS011;16074;42.708;23.312;2022-12-18T10:23:08;16.52;;;11.82;;
787;SDS011;16074;42.708;23.312;2022-12-18T10:25:46;20.10;;;12.75;;
787;SDS011;16074;42.708;23.312;2022-12-18T10:28:20;17.25;;;11.35;;
787;SDS011;16074;42.708;23.312;2022-12-18T10:30:49;18.30;;;12.63;;
787;SDS011;16074;42.708;23.312;2022-12-18T10:33:20;18.20;;;13.23;;
787;SDS011;16074;42.708;23.312;2022-12-18T10:35:50;18.17;;;12.73;;
787;SDS011;16074;42.708;23.312;2022-12-18T10:38:24;18.25;;;13.02;;
787;SDS011;16074;42.708;23.312;2022-12-18T10:40:54;16.75;;;13.77;;
787;SDS011;16074;42.708;23.312;2022-12-18T10:43:25;17.38;;;12.48;;
787;SDS011;16074;42.708;23.312;2022-12-18T10:45:59;21.38;;;14.45;;
787;SDS011;16074;42.708;23.312;2022-12-18T10:48:51;20.25;;;14.10;;
787;SDS011;16074;42.708;23.312;2022-12-18T10:51:23;20.80;;;14.13;;
787;SDS011;16074;42.708;23.312;2022-12-18T10:53:56;21.75;;;14.15;;
787;SDS011;16074;42.708;23.312;2022-12-18T10:56:28;16.13;;;11.40;;
787;SDS011;16074;42.708;23.312;2022-12-18T10:58:59;20.88;;;13.55;;
787;SDS011;16074;42.708;23.312;2022-12-18T11:01:44;17.40;;;13.65;;
787;SDS011;16074;42.708;23.312;2022-12-18T11:04:20;16.55;;;11.18;;
787;SDS011;16074;42.708;23.312;2022-12-18T11:06:54;15.65;;;12.55;;
787;SDS011;16074;42.708;23.312;2022-12-18T11:09:25;18.17;;;13.18;;
787;SDS011;16074;42.708;23.312;2022-12-18T11:11:55;17.85;;;13.35;;
787;SDS011;16074;42.708;23.312;2022-12-18T11:14:28;17.58;;;12.02;;
787;SDS011;16074;42.708;23.312;2022-12-18T11:16:58;16.30;;;12.20;;
787;SDS011;16074;42.708;23.312;2022-12-18T11:19:53;17.05;;;11.32;;
787;SDS011;16074;42.708;23.312;2022-12-18T11:22:23;18.00;;;14.60;;
787;SDS011;16074;42.708;23.312;2022-12-18T11:24:55;18.27;;;12.80;;
787;SDS011;16074;42.708;23.312;2022-12-18T11:27:49;13.75;;;10.90;;
787;SDS011;16074;42.708;23.312;2022-12-18T11:30:21;22.35;;;14.88;;
787;SDS011;16074;42.708;23.312;2022-12-18T11:32:52;20.63;;;13.75;;
787;SDS011;16074;42.708;23.312;2022-12-18T11:35:28;20.48;;;14.35;;
787;SDS011;16074;42.708;23.312;2022-12-18T11:38:06;20.75;;;12.98;;
787;SDS011;16074;42.708;23.312;2022-12-18T11:40:42;17.83;;;12.10;;
787;SDS011;16074;42.708;23.312;2022-12-18T11:43:14;25.92;;;14.35;;
787;SDS011;16074;42.708;23.312;2022-12-18T11:45:48;17.30;;;12.57;;
787;SDS011;16074;42.708;23.312;2022-12-18T11:48:21;19.52;;;13.73;;
787;SDS011;16074;42.708;23.312;2022-12-18T11:50:55;20.30;;;13.30;;
787;SDS011;16074;42.708;23.312;2022-12-18T11:53:25;20.92;;;14.18;;
787;SDS011;16074;42.708;23.312;2022-12-18T11:56:00;17.88;;;11.95;;
787;SDS011;16074;42.708;23.312;2022-12-18T11:58:42;15.98;;;11.55;;
787;SDS011;16074;42.708;23.312;2022-12-18T12:01:17;21.38;;;13.00;;
787;SDS011;16074;42.708;23.312;2022-12-18T12:04:05;20.00;;;13.90;;
787;SDS011;16074;42.708;23.312;2022-12-18T12:06:58;15.65;;;11.90;;
787;SDS011;16074;42.708;23.312;2022-12-18T12:09:37;16.75;;;11.80;;
787;SDS011;16074;42.708;23.312;2022-12-18T12:12:20;17.92;;;13.43;;
787;SDS011;16074;42.708;23.312;2022-12-18T12:15:17;16.45;;;13.18;;
787;SDS011;16074;42.708;23.312;2022-12-18T12:17:55;17.67;;;11.73;;
787;SDS011;16074;42.708;23.312;2022-12-18T12:20:40;19.23;;;13.77;;
787;SDS011;16074;42.708;23.312;2022-12-18T12:23:19;14.43;;;10.77;;
787;SDS011;16074;42.708;23.312;2022-12-18T12:25:56;13.35;;;10.68;;
787;SDS011;16074;42.708;23.312;2022-12-18T12:28:36;24.23;;;14.23;;
787;SDS011;16074;42.708;23.312;2022-12-18T12:31:31;18.30;;;11.85;;
787;SDS011;16074;42.708;23.312;2022-12-18T12:34:13;16.63;;;11.93;;
787;SDS011;16074;42.708;23.312;2022-12-18T12:36:49;14.73;;;13.13;;
787;SDS011;16074;42.708;23.312;2022-12-18T12:39:30;15.70;;;11.57;;
787;SDS011;16074;42.708;23.312;2022-12-18T12:42:02;22.42;;;16.27;;
787;SDS011;16074;42.708;23.312;2022-12-18T12:44:50;23.13;;;13.80;;
787;SDS011;16074;42.708;23.312;2022-12-18T12:47:25;19.00;;;14.18;;
787;SDS011;16074;42.708;23.312;2022-12-18T12:50:00;20.98;;;12.30;;
787;SDS011;16074;42.708;23.312;2022-12-18T12:52:34;22.20;;;13.65;;
787;SDS011;16074;42.708;23.312;2022-12-18T12:55:12;18.67;;;13.90;;
787;SDS011;16074;42.708;23.312;2022-12-18T12:57:48;18.00;;;13.60;;
787;SDS011;16074;42.708;23.312;2022-12-18T13:00:25;18.50;;;13.00;;
787;SDS011;16074;42.708;23.312;2022-12-18T13:03:01;19.75;;;14.88;;
787;SDS011;16074;42.708;23.312;2022-12-18T13:05:44;15.30;;;10.80;;
787;SDS011;16074;42.708;23.312;2022-12-18T13:08:22;16.05;;;11.30;;
787;SDS011;16074;42.708;23.312;2022-12-18T13:10:54;18.58;;;11.88;;
787;SDS011;16074;42.708;23.312;2022-12-18T13:13:56;19.15;;;14.13;;
787;SDS011;16074;42.708;23.312;2022-12-18T13:16:25;20.25;;;13.00;;
787;SDS011;16074;42.708;23.312;2022-12-18T13:18:55;18.48;;;12.57;;
787;SDS011;16074;42.708;23.312;2022-12-18T13:21:25;20.95;;;13.10;;
787;SDS011;16074;42.708;23.312;2022-12-18T13:23:56;20.40;;;13.98;;
787;SDS011;16074;42.708;23.312;2022-12-18T13:26:44;21.13;;;11.77;;
787;SDS011;16074;42.708;23.312;2022-12-18T13:29:13;21.30;;;13.00;;
787;SDS011;16074;42.708;23.312;2022-12-18T13:32:19;17.13;;;11.80;;
787;SDS011;16074;42.708;23.312;2022-12-18T13:37:56;19.50;;;12.60;;
787;SDS011;16074;42.708;23.312;2022-12-18T13:43:31;20.02;;;13.15;;
787;SDS011;16074;42.708;23.312;2022-12-18T13:48:56;22.40;;;13.43;;
787;SDS011;16074;42.708;23.312;2022-12-18T13:51:27;16.65;;;11.32;;
787;SDS011;16074;42.708;23.312;2022-12-18T13:53:59;16.83;;;12.40;;
787;SDS011;16074;42.708;23.312;2022-12-18T13:56:30;16.35;;;12.40;;
787;SDS011;16074;42.708;23.312;2022-12-18T13:59:09;19.00;;;12.00;;
787;SDS011;16074;42.708;23.312;2022-12-18T14:01:43;18.27;;;12.07;;
787;SDS011;16074;42.708;23.312;2022-12-18T14:04:18;17.65;;;12.10;;
787;SDS011;16074;42.708;23.312;2022-12-18T14:06:49;21.98;;;12.63;;
787;SDS011;16074;42.708;23.312;2022-12-18T14:09:21;16.83;;;11.25;;
787;SDS011;16074;42.708;23.312;2022-12-18T14:11:53;14.23;;;12.02;;
787;SDS011;16074;42.708;23.312;2022-12-18T14:14:45;16.65;;;11.75;;
787;SDS011;16074;42.708;23.312;2022-12-18T14:17:18;15.23;;;11.63;;
787;SDS011;16074;42.708;23.312;2022-12-18T14:19:49;17.00;;;12.18;;
787;SDS011;16074;42.708;23.312;2022-12-18T14:22:19;18.52;;;12.07;;
787;SDS011;16074;42.708;23.312;2022-12-18T14:25:05;18.50;;;13.45;;
787;SDS011;16074;42.708;23.312;2022-12-18T14:27:42;18.48;;;12.52;;
787;SDS011;16074;42.708;23.312;2022-12-18T14:30:29;15.88;;;11.27;;
787;SDS011;16074;42.708;23.312;2022-12-18T14:33:04;21.92;;;12.18;;
787;SDS011;16074;42.708;23.312;2022-12-18T14:35:36;17.08;;;12.93;;
787;SDS011;16074;42.708;23.312;2022-12-18T14:38:10;19.60;;;12.85;;
787;SDS011;16074;42.708;23.312;2022-12-18T14:40:45;18.17;;;12.93;;
787;SDS011;16074;42.708;23.312;2022-12-18T14:43:13;23.95;;;12.55;;
787;SDS011;16074;42.708;23.312;2022-12-18T14:45:43;18.77;;;10.32;;
787;SDS011;16074;42.708;23.312;2022-12-18T14:48:15;16.27;;;10.45;;
787;SDS011;16074;42.708;23.312;2022-12-18T14:50:56;13.07;;;9.90;;
787;SDS011;16074;42.708;23.312;2022-12-18T14:53:32;22.70;;;13.70;;
787;SDS011;16074;42.708;23.312;2022-12-18T14:56:04;24.45;;;14.60;;
787;SDS011;16074;42.708;23.312;2022-12-18T14:58:48;18.75;;;12.32;;
787;SDS011;16074;42.708;23.312;2022-12-18T15:01:20;15.30;;;10.38;;
787;SDS011;16074;42.708;23.312;2022-12-18T15:03:51;14.05;;;11.32;;
787;SDS011;16074;42.708;23.312;2022-12-18T15:06:25;18.20;;;11.15;;
787;SDS011;16074;42.708;23.312;2022-12-18T15:09:00;15.05;;;10.38;;
787;SDS011;16074;42.708;23.312;2022-12-18T15:11:33;15.80;;;11.00;;
787;SDS011;16074;42.708;23.312;2022-12-18T15:14:23;14.57;;;11.25;;
787;SDS011;16074;42.708;23.312;2022-12-18T15:17:01;17.77;;;13.38;;